createdAt,value
2018-08-09T00:00:02.405Z,65.37
2018-08-09T00:00:12.415Z,65.37
2018-08-09T00:00:22.434Z,64.98
2018-08-09T00:00:32.405Z,65.47
2018-08-09T00:00:42.435Z,64.98
2018-08-09T00:00:52.455Z,65.37
2018-08-09T00:01:02.455Z,65.47
2018-08-09T00:01:12.501Z,65.47
2018-08-09T00:01:22.485Z,65.47
2018-08-09T00:01:32.529Z,65.47
2018-08-09T00:01:42.653Z,65.37
2018-08-09T00:01:52.546Z,65.37
2018-08-09T00:02:02.529Z,64.98
2018-08-09T00:02:12.553Z,65.37
2018-08-09T00:02:22.585Z,65.37
2018-08-09T00:02:32.579Z,65.47
2018-08-09T00:02:42.605Z,65.37
2018-08-09T00:02:52.656Z,65.08
2018-08-09T00:03:02.626Z,65.37
2018-08-09T00:03:12.617Z,65.37
2018-08-09T00:03:22.695Z,65.08
2018-08-09T00:03:32.706Z,65.37
2018-08-09T00:03:42.416Z,65.47
2018-08-09T00:03:52.696Z,65.56
2018-08-09T00:04:02.448Z,65.56
2018-08-09T00:04:12.696Z,65.47
2018-08-09T00:04:22.735Z,65.47
2018-08-09T00:04:32.759Z,65.08
2018-08-09T00:04:42.764Z,65.56
2018-08-09T00:04:52.785Z,65.47
2018-08-09T00:05:02.813Z,65.47
2018-08-09T00:05:12.796Z,65.47
2018-08-09T00:05:22.817Z,65.56
2018-08-09T00:05:32.846Z,65.47
2018-08-09T00:05:42.856Z,65.47
2018-08-09T00:05:52.589Z,65.47
2018-08-09T00:06:02.880Z,65.47
2018-08-09T00:06:12.916Z,65.37
2018-08-09T00:06:22.914Z,65.37
2018-08-09T00:06:32.925Z,65.47
2018-08-09T00:06:42.929Z,65.47
2018-08-09T00:06:52.988Z,65.47
2018-08-09T00:07:02.946Z,65.47
2018-08-09T00:07:12.986Z,65.37
2018-08-09T00:07:23.006Z,65.37
2018-08-09T00:07:32.996Z,65.47
2018-08-09T00:07:43.067Z,65.47
2018-08-09T00:07:52.763Z,65.47
2018-08-09T00:08:03.056Z,65.37
2018-08-09T00:08:13.049Z,64.98
2018-08-09T00:08:23.056Z,65.47
2018-08-09T00:08:33.096Z,65.37
2018-08-09T00:08:43.086Z,65.47
2018-08-09T00:08:52.855Z,65.56
2018-08-09T00:09:03.122Z,65.47
2018-08-09T00:09:13.147Z,65.37
2018-08-09T00:09:23.189Z,65.47
2018-08-09T00:09:33.166Z,65.47
2018-08-09T00:09:43.205Z,65.47
2018-08-09T00:09:53.186Z,65.47
2018-08-09T00:10:02.956Z,65.66
2018-08-09T00:10:13.197Z,65.75
2018-08-09T00:10:23.246Z,65.66
2018-08-09T00:10:33.270Z,65.75
2018-08-09T00:10:42.974Z,65.75
2018-08-09T00:10:53.286Z,65.66
2018-08-09T00:11:03.287Z,65.75
2018-08-09T00:11:13.311Z,65.75
2018-08-09T00:11:23.327Z,65.75
2018-08-09T00:11:33.067Z,65.37
2018-08-09T00:11:43.316Z,65.75
2018-08-09T00:11:53.326Z,65.75
2018-08-09T00:12:03.387Z,65.85
2018-08-09T00:12:13.467Z,65.75
2018-08-09T00:12:23.386Z,65.85
2018-08-09T00:12:33.426Z,65.66
2018-08-09T00:12:43.435Z,65.75
2018-08-09T00:12:53.426Z,65.75
2018-08-09T00:13:03.465Z,65.75
2018-08-09T00:13:13.487Z,65.66
2018-08-09T00:13:23.488Z,65.66
2018-08-09T00:13:33.240Z,65.85
2018-08-09T00:13:43.536Z,65.75
2018-08-09T00:13:53.516Z,65.75
2018-08-09T00:14:03.555Z,65.66
2018-08-09T00:14:13.574Z,65.95
2018-08-09T00:14:23.585Z,65.95
2018-08-09T00:14:33.568Z,65.85
2018-08-09T00:14:43.617Z,65.85
2018-08-09T00:14:53.623Z,65.85
2018-08-09T00:15:03.637Z,65.66
2018-08-09T00:15:13.639Z,65.75
2018-08-09T00:15:23.678Z,65.95
2018-08-09T00:15:33.657Z,65.75
2018-08-09T00:15:43.707Z,65.75
2018-08-09T00:15:53.698Z,65.66
2018-08-09T00:16:03.407Z,65.85
2018-08-09T00:16:13.730Z,65.75
2018-08-09T00:16:23.717Z,65.66
2018-08-09T00:16:33.788Z,65.85
2018-08-09T00:16:43.766Z,65.66
2018-08-09T00:16:53.517Z,65.85
2018-08-09T00:17:03.808Z,65.56
2018-08-09T00:17:13.777Z,65.56
2018-08-09T00:17:23.827Z,65.66
2018-08-09T00:17:33.860Z,65.56
2018-08-09T00:17:43.827Z,65.56
2018-08-09T00:17:53.896Z,65.47
2018-08-09T00:18:03.876Z,65.75
2018-08-09T00:18:13.886Z,65.56
2018-08-09T00:18:23.910Z,65.47
2018-08-09T00:18:33.917Z,65.47
2018-08-09T00:18:43.908Z,65.56
2018-08-09T00:18:53.931Z,65.66
2018-08-09T00:19:03.958Z,65.56
2018-08-09T00:19:13.967Z,65.66
2018-08-09T00:19:23.971Z,65.85
2018-08-09T00:19:33.987Z,65.66
2018-08-09T00:19:44.048Z,65.56
2018-08-09T00:19:54.019Z,65.56
2018-08-09T00:20:04.041Z,65.85
2018-08-09T00:20:14.038Z,65.66
2018-08-09T00:20:24.048Z,65.85
2018-08-09T00:20:34.088Z,65.37
2018-08-09T00:20:44.108Z,65.56
2018-08-09T00:20:54.098Z,65.56
2018-08-09T00:21:04.108Z,65.66
2018-08-09T00:21:14.178Z,65.47
2018-08-09T00:21:24.158Z,65.47
2018-08-09T00:21:33.908Z,65.47
2018-08-09T00:21:44.178Z,65.56
2018-08-09T00:21:54.208Z,65.56
2018-08-09T00:22:04.202Z,65.47
2018-08-09T00:22:14.237Z,65.56
2018-08-09T00:22:24.237Z,65.56
2018-08-09T00:22:34.227Z,65.56
2018-08-09T00:22:44.278Z,65.56
2018-08-09T00:22:54.268Z,65.56
2018-08-09T00:23:04.308Z,65.85
2018-08-09T00:23:14.307Z,65.56
2018-08-09T00:23:24.366Z,65.85
2018-08-09T00:23:34.339Z,65.37
2018-08-09T00:23:44.382Z,65.66
2018-08-09T00:23:54.552Z,65.56
2018-08-09T00:24:04.358Z,65.66
2018-08-09T00:24:14.357Z,65.56
2018-08-09T00:24:24.417Z,65.56
2018-08-09T00:24:34.428Z,65.56
2018-08-09T00:24:44.439Z,65.85
2018-08-09T00:24:54.437Z,65.85
2018-08-09T00:25:04.460Z,65.56
2018-08-09T00:25:14.469Z,65.66
2018-08-09T00:25:24.503Z,65.56
2018-08-09T00:25:34.490Z,65.95
2018-08-09T00:25:44.519Z,65.66
2018-08-09T00:25:54.258Z,65.85
2018-08-09T00:26:04.577Z,65.95
2018-08-09T00:26:14.289Z,65.75
2018-08-09T00:26:24.258Z,65.75
2018-08-09T00:26:34.589Z,65.66
2018-08-09T00:26:44.599Z,65.95
2018-08-09T00:26:54.609Z,65.75
2018-08-09T00:27:04.646Z,65.95
2018-08-09T00:27:14.633Z,65.75
2018-08-09T00:27:24.628Z,65.75
2018-08-09T00:27:34.648Z,65.75
2018-08-09T00:27:44.668Z,65.95
2018-08-09T00:27:54.697Z,65.95
2018-08-09T00:28:04.710Z,65.85
2018-08-09T00:28:14.708Z,65.95
2018-08-09T00:28:24.717Z,65.85
2018-08-09T00:28:34.479Z,65.66
2018-08-09T00:28:44.739Z,65.85
2018-08-09T00:28:54.739Z,65.75
2018-08-09T00:29:04.777Z,65.85
2018-08-09T00:29:14.796Z,65.85
2018-08-09T00:29:24.789Z,65.75
2018-08-09T00:29:34.812Z,65.85
2018-08-09T00:29:44.818Z,65.75
2018-08-09T00:29:54.917Z,65.47
2018-08-09T00:30:04.838Z,65.85
2018-08-09T00:30:14.879Z,65.75
2018-08-09T00:30:24.879Z,65.85
2018-08-09T00:30:34.909Z,65.85
2018-08-09T00:30:44.908Z,65.95
2018-08-09T00:30:54.949Z,65.85
2018-08-09T00:31:04.999Z,65.85
2018-08-09T00:31:14.967Z,65.56
2018-08-09T00:31:24.989Z,65.56
2018-08-09T00:31:34.728Z,65.85
2018-08-09T00:31:45.009Z,65.47
2018-08-09T00:31:55.009Z,65.75
2018-08-09T00:32:05.002Z,65.66
2018-08-09T00:32:15.030Z,65.47
2018-08-09T00:32:25.082Z,65.56
2018-08-09T00:32:34.789Z,65.47
2018-08-09T00:32:45.078Z,65.75
2018-08-09T00:32:55.089Z,65.85
2018-08-09T00:33:05.118Z,65.95
2018-08-09T00:33:15.113Z,65.56
2018-08-09T00:33:25.128Z,65.56
2018-08-09T00:33:35.166Z,65.75
2018-08-09T00:33:45.179Z,65.66
2018-08-09T00:33:55.169Z,65.47
2018-08-09T00:34:05.189Z,65.47
2018-08-09T00:34:15.189Z,65.66
2018-08-09T00:34:25.240Z,65.47
2018-08-09T00:34:35.240Z,65.56
2018-08-09T00:34:45.219Z,65.66
2018-08-09T00:34:55.261Z,65.85
2018-08-09T00:35:05.260Z,65.75
2018-08-09T00:35:15.319Z,65.66
2018-08-09T00:35:25.030Z,65.75
2018-08-09T00:35:35.337Z,65.85
2018-08-09T00:35:45.339Z,65.66
2018-08-09T00:35:55.320Z,65.75
2018-08-09T00:36:05.339Z,65.66
2018-08-09T00:36:15.369Z,65.75
2018-08-09T00:36:25.360Z,65.47
2018-08-09T00:36:35.119Z,65.75
2018-08-09T00:36:45.422Z,65.47
2018-08-09T00:36:55.430Z,65.56
2018-08-09T00:37:05.419Z,65.47
2018-08-09T00:37:15.470Z,65.56
2018-08-09T00:37:25.469Z,65.66
2018-08-09T00:37:35.490Z,65.56
2018-08-09T00:37:45.509Z,65.56
2018-08-09T00:37:55.527Z,65.56
2018-08-09T00:38:05.529Z,65.56
2018-08-09T00:38:15.529Z,65.56
2018-08-09T00:38:25.563Z,65.85
2018-08-09T00:38:35.580Z,65.85
2018-08-09T00:38:45.610Z,65.66
2018-08-09T00:38:55.609Z,65.56
2018-08-09T00:39:05.598Z,65.56
2018-08-09T00:39:15.641Z,65.56
2018-08-09T00:39:25.629Z,65.66
2018-08-09T00:39:35.648Z,65.47
2018-08-09T00:39:45.689Z,65.56
2018-08-09T00:39:55.678Z,65.85
2018-08-09T00:40:05.687Z,65.85
2018-08-09T00:40:15.700Z,65.66
2018-08-09T00:40:25.709Z,65.66
2018-08-09T00:40:35.750Z,65.56
2018-08-09T00:40:45.459Z,65.47
2018-08-09T00:40:55.770Z,65.56
2018-08-09T00:41:05.769Z,65.56
2018-08-09T00:41:15.790Z,65.75
2018-08-09T00:41:25.549Z,65.56
2018-08-09T00:41:35.539Z,65.56
2018-08-09T00:41:45.821Z,65.95
2018-08-09T00:41:55.839Z,65.66
2018-08-09T00:42:05.859Z,65.66
2018-08-09T00:42:15.861Z,65.56
2018-08-09T00:42:25.881Z,65.66
2018-08-09T00:42:35.870Z,65.66
2018-08-09T00:42:45.921Z,65.95
2018-08-09T00:42:55.936Z,65.66
2018-08-09T00:43:05.980Z,65.66
2018-08-09T00:43:15.960Z,65.66
2018-08-09T00:43:25.970Z,65.66
2018-08-09T00:43:35.970Z,65.47
2018-08-09T00:43:45.980Z,65.56
2018-08-09T00:43:56.011Z,65.56
2018-08-09T00:44:06.030Z,66.14
2018-08-09T00:44:16.051Z,65.66
2018-08-09T00:44:26.062Z,66.14
2018-08-09T00:44:36.041Z,65.66
2018-08-09T00:44:45.790Z,65.56
2018-08-09T00:44:56.110Z,65.66
2018-08-09T00:45:06.100Z,66.14
2018-08-09T00:45:16.120Z,65.56
2018-08-09T00:45:26.140Z,65.95
2018-08-09T00:45:36.130Z,65.95
2018-08-09T00:45:46.151Z,66.05
2018-08-09T00:45:56.190Z,66.14
2018-08-09T00:46:06.171Z,65.66
2018-08-09T00:46:16.191Z,65.56
2018-08-09T00:46:25.941Z,65.56
2018-08-09T00:46:36.210Z,66.14
2018-08-09T00:46:45.978Z,66.14
2018-08-09T00:46:56.253Z,65.66
2018-08-09T00:47:06.282Z,65.95
2018-08-09T00:47:16.281Z,66.05
2018-08-09T00:47:26.300Z,66.14
2018-08-09T00:47:36.351Z,66.05
2018-08-09T00:47:46.310Z,65.56
2018-08-09T00:47:56.341Z,66.14
2018-08-09T00:48:06.351Z,65.56
2018-08-09T00:48:16.351Z,65.66
2018-08-09T00:48:26.382Z,66.14
2018-08-09T00:48:36.370Z,65.56
2018-08-09T00:48:46.390Z,65.66
2018-08-09T00:48:56.391Z,65.56
2018-08-09T00:49:06.450Z,66.14
2018-08-09T00:49:16.150Z,66.14
2018-08-09T00:49:26.454Z,65.66
2018-08-09T00:49:36.462Z,65.75
2018-08-09T00:49:46.496Z,66.05
2018-08-09T00:49:56.472Z,65.95
2018-08-09T00:50:06.511Z,65.85
2018-08-09T00:50:16.551Z,66.05
2018-08-09T00:50:26.511Z,65.85
2018-08-09T00:50:36.572Z,65.85
2018-08-09T00:50:46.599Z,66.05
2018-08-09T00:50:56.292Z,65.85
2018-08-09T00:51:06.600Z,66.05
2018-08-09T00:51:16.611Z,65.85
2018-08-09T00:51:26.639Z,66.05
2018-08-09T00:51:36.627Z,65.95
2018-08-09T00:51:46.651Z,65.95
2018-08-09T00:51:56.632Z,65.95
2018-08-09T00:52:06.665Z,66.24
2018-08-09T00:52:16.681Z,65.85
2018-08-09T00:52:26.701Z,66.05
2018-08-09T00:52:36.701Z,66.05
2018-08-09T00:52:46.754Z,65.85
2018-08-09T00:52:56.751Z,65.95
2018-08-09T00:53:06.802Z,65.95
2018-08-09T00:53:16.771Z,66.05
2018-08-09T00:53:26.782Z,65.95
2018-08-09T00:53:36.801Z,65.95
2018-08-09T00:53:46.833Z,65.95
2018-08-09T00:53:56.832Z,65.95
2018-08-09T00:54:06.841Z,66.05
2018-08-09T00:54:16.881Z,66.05
2018-08-09T00:54:26.865Z,66.14
2018-08-09T00:54:36.907Z,66.05
2018-08-09T00:54:46.910Z,66.05
2018-08-09T00:54:56.920Z,66.24
2018-08-09T00:55:06.922Z,66.05
2018-08-09T00:55:16.682Z,66.05
2018-08-09T00:55:26.942Z,66.05
2018-08-09T00:55:37.001Z,65.95
2018-08-09T00:55:47.022Z,65.95
2018-08-09T00:55:56.981Z,66.05
2018-08-09T00:56:07.011Z,66.05
2018-08-09T00:56:17.041Z,66.24
2018-08-09T00:56:27.062Z,66.05
2018-08-09T00:56:37.048Z,66.14
2018-08-09T00:56:47.071Z,66.05
2018-08-09T00:56:57.083Z,66.05
2018-08-09T00:57:07.124Z,66.05
2018-08-09T00:57:17.113Z,66.05
2018-08-09T00:57:27.112Z,66.05
2018-08-09T00:57:37.132Z,66.05
2018-08-09T00:57:47.162Z,66.05
2018-08-09T00:57:57.162Z,66.05
2018-08-09T00:58:07.193Z,66.05
2018-08-09T00:58:17.187Z,66.05
2018-08-09T00:58:27.214Z,65.85
2018-08-09T00:58:37.233Z,65.95
2018-08-09T00:58:46.963Z,66.05
2018-08-09T00:58:57.277Z,66.05
2018-08-09T00:59:07.252Z,66.05
2018-08-09T00:59:17.262Z,66.05
2018-08-09T00:59:27.312Z,66.05
2018-08-09T00:59:37.316Z,66.05
2018-08-09T00:59:47.293Z,65.95
2018-08-09T00:59:57.338Z,66.05
2018-08-09T01:00:07.372Z,65.85
2018-08-09T01:00:17.356Z,65.95
2018-08-09T01:00:27.382Z,65.75
2018-08-09T01:00:37.429Z,65.66
2018-08-09T01:00:47.413Z,65.66
2018-08-09T01:00:57.422Z,65.85
2018-08-09T01:01:07.413Z,65.85
2018-08-09T01:01:17.455Z,65.85
2018-08-09T01:01:27.473Z,65.75
2018-08-09T01:01:37.203Z,65.95
2018-08-09T01:01:47.471Z,65.66
2018-08-09T01:01:57.493Z,65.85
2018-08-09T01:02:07.508Z,65.85
2018-08-09T01:02:17.524Z,66.05
2018-08-09T01:02:27.528Z,65.85
2018-08-09T01:02:37.574Z,66.05
2018-08-09T01:02:47.553Z,65.75
2018-08-09T01:02:57.563Z,65.85
2018-08-09T01:03:07.607Z,65.85
2018-08-09T01:03:17.334Z,66.05
2018-08-09T01:03:27.652Z,66.05
2018-08-09T01:03:37.634Z,65.95
2018-08-09T01:03:47.653Z,65.85
2018-08-09T01:03:57.692Z,65.95
2018-08-09T01:04:07.672Z,65.75
2018-08-09T01:04:17.717Z,65.75
2018-08-09T01:04:27.723Z,65.85
2018-08-09T01:04:37.717Z,65.85
2018-08-09T01:04:47.745Z,65.75
2018-08-09T01:04:57.784Z,65.85
2018-08-09T01:05:07.752Z,65.85
2018-08-09T01:05:17.784Z,65.66
2018-08-09T01:05:27.774Z,65.95
2018-08-09T01:05:37.783Z,65.75
2018-08-09T01:05:47.821Z,65.85
2018-08-09T01:05:57.867Z,65.66
2018-08-09T01:06:07.863Z,65.85
2018-08-09T01:06:17.860Z,65.85
2018-08-09T01:06:27.867Z,65.75
2018-08-09T01:06:37.914Z,65.85
2018-08-09T01:06:47.902Z,65.85
2018-08-09T01:06:57.924Z,65.75
2018-08-09T01:07:07.921Z,65.95
2018-08-09T01:07:17.954Z,66.14
2018-08-09T01:07:27.944Z,65.66
2018-08-09T01:07:37.981Z,65.85
2018-08-09T01:07:47.958Z,65.85
2018-08-09T01:07:57.991Z,65.85
2018-08-09T01:08:08.005Z,65.85
2018-08-09T01:08:18.054Z,65.85
2018-08-09T01:08:28.024Z,65.66
2018-08-09T01:08:38.114Z,66.05
2018-08-09T01:08:48.073Z,65.75
2018-08-09T01:08:58.084Z,65.85
2018-08-09T01:09:08.104Z,65.95
2018-08-09T01:09:18.124Z,65.95
2018-08-09T01:09:28.114Z,65.95
2018-08-09T01:09:38.166Z,65.85
2018-08-09T01:09:48.138Z,65.66
2018-08-09T01:09:58.151Z,66.05
2018-08-09T01:10:08.157Z,66.05
2018-08-09T01:10:17.967Z,65.66
2018-08-09T01:10:28.174Z,66.05
2018-08-09T01:10:38.224Z,65.85
2018-08-09T01:10:48.225Z,66.05
2018-08-09T01:10:58.272Z,65.85
2018-08-09T01:11:08.253Z,65.66
2018-08-09T01:11:18.272Z,65.85
2018-08-09T01:11:28.303Z,65.75
2018-08-09T01:11:38.312Z,65.75
2018-08-09T01:11:48.353Z,65.75
2018-08-09T01:11:58.324Z,65.75
2018-08-09T01:12:08.344Z,66.05
2018-08-09T01:12:18.339Z,65.85
2018-08-09T01:12:28.094Z,66.05
2018-08-09T01:12:38.364Z,65.95
2018-08-09T01:12:48.403Z,65.95
2018-08-09T01:12:58.144Z,65.75
2018-08-09T01:13:08.435Z,65.95
2018-08-09T01:13:18.424Z,65.85
2018-08-09T01:13:28.185Z,65.85
2018-08-09T01:13:38.477Z,65.85
2018-08-09T01:13:48.466Z,65.66
2018-08-09T01:13:58.495Z,65.66
2018-08-09T01:14:08.246Z,65.75
2018-08-09T01:14:18.532Z,66.05
2018-08-09T01:14:28.545Z,65.85
2018-08-09T01:14:38.545Z,65.95
2018-08-09T01:14:48.545Z,65.95
2018-08-09T01:14:58.577Z,65.95
2018-08-09T01:15:08.584Z,66.05
2018-08-09T01:15:18.584Z,66.05
2018-08-09T01:15:28.615Z,65.85
2018-08-09T01:15:38.604Z,66.05
2018-08-09T01:15:48.666Z,65.66
2018-08-09T01:15:58.670Z,65.66
2018-08-09T01:16:08.655Z,65.66
2018-08-09T01:16:18.682Z,65.95
2018-08-09T01:16:28.685Z,65.85
2018-08-09T01:16:38.714Z,65.85
2018-08-09T01:16:48.735Z,65.66
2018-08-09T01:16:58.726Z,65.95
2018-08-09T01:17:08.771Z,65.66
2018-08-09T01:17:18.765Z,65.85
2018-08-09T01:17:28.784Z,66.05
2018-08-09T01:17:38.795Z,66.05
2018-08-09T01:17:48.818Z,65.75
2018-08-09T01:17:58.843Z,65.75
2018-08-09T01:18:08.824Z,65.85
2018-08-09T01:18:18.876Z,65.66
2018-08-09T01:18:28.878Z,65.66
2018-08-09T01:18:38.905Z,65.66
2018-08-09T01:18:48.899Z,65.66
2018-08-09T01:18:58.905Z,65.75
2018-08-09T01:19:08.915Z,65.85
2018-08-09T01:19:18.925Z,65.85
2018-08-09T01:19:28.971Z,65.95
2018-08-09T01:19:38.935Z,65.85
2018-08-09T01:19:48.974Z,65.75
2018-08-09T01:19:58.997Z,66.05
2018-08-09T01:20:09.020Z,66.05
2018-08-09T01:20:18.995Z,66.05
2018-08-09T01:20:29.024Z,66.05
2018-08-09T01:20:39.054Z,66.05
2018-08-09T01:20:49.044Z,65.85
2018-08-09T01:20:59.076Z,65.95
2018-08-09T01:21:09.116Z,66.05
2018-08-09T01:21:19.096Z,65.95
2018-08-09T01:21:29.111Z,65.66
2018-08-09T01:21:39.115Z,65.66
2018-08-09T01:21:49.146Z,66.05
2018-08-09T01:21:59.146Z,65.95
2018-08-09T01:22:09.176Z,66.05
2018-08-09T01:22:19.794Z,66.05
2018-08-09T01:22:29.179Z,65.66
2018-08-09T01:22:39.196Z,65.75
2018-08-09T01:22:49.227Z,65.75
2018-08-09T01:22:59.225Z,65.85
2018-08-09T01:23:09.269Z,65.85
2018-08-09T01:23:19.007Z,65.85
2018-08-09T01:23:29.267Z,65.95
2018-08-09T01:23:39.016Z,65.85
2018-08-09T01:23:49.305Z,65.95
2018-08-09T01:23:59.308Z,65.85
2018-08-09T01:24:09.356Z,65.95
2018-08-09T01:24:19.365Z,65.95
2018-08-09T01:24:29.336Z,65.85
2018-08-09T01:24:39.355Z,65.85
2018-08-09T01:24:49.357Z,65.85
2018-08-09T01:24:59.406Z,65.66
2018-08-09T01:25:09.137Z,65.95
2018-08-09T01:25:19.436Z,65.95
2018-08-09T01:25:29.435Z,65.75
2018-08-09T01:25:39.470Z,65.75
2018-08-09T01:25:49.524Z,66.05
2018-08-09T01:25:59.480Z,66.05
2018-08-09T01:26:09.476Z,65.85
2018-08-09T01:26:19.506Z,65.66
2018-08-09T01:26:29.254Z,65.85
2018-08-09T01:26:39.543Z,66.05
2018-08-09T01:26:49.554Z,65.66
2018-08-09T01:26:59.571Z,66.05
2018-08-09T01:27:09.566Z,65.66
2018-08-09T01:27:19.595Z,65.75
2018-08-09T01:27:29.725Z,65.95
2018-08-09T01:27:39.626Z,65.56
2018-08-09T01:27:49.646Z,65.66
2018-08-09T01:27:59.655Z,65.95
2018-08-09T01:28:09.668Z,66.05
2018-08-09T01:28:19.679Z,66.05
2018-08-09T01:28:29.685Z,65.85
2018-08-09T01:28:39.427Z,65.75
2018-08-09T01:28:49.727Z,65.75
2018-08-09T01:28:59.723Z,65.75
2018-08-09T01:29:09.777Z,65.75
2018-08-09T01:29:19.759Z,65.75
2018-08-09T01:29:29.776Z,65.75
2018-08-09T01:29:39.781Z,65.75
2018-08-09T01:29:49.816Z,65.75
2018-08-09T01:29:59.816Z,65.66
2018-08-09T01:30:09.817Z,65.66
2018-08-09T01:30:19.859Z,65.75
2018-08-09T01:30:29.898Z,65.85
2018-08-09T01:30:39.847Z,65.75
2018-08-09T01:30:49.897Z,65.66
2018-08-09T01:30:59.907Z,65.75
2018-08-09T01:31:09.931Z,65.85
2018-08-09T01:31:19.926Z,65.85
2018-08-09T01:31:29.985Z,65.85
2018-08-09T01:31:39.981Z,65.85
2018-08-09T01:31:49.985Z,65.85
2018-08-09T01:31:59.997Z,65.95
2018-08-09T01:32:10.008Z,65.56
2018-08-09T01:32:20.027Z,65.85
2018-08-09T01:32:30.077Z,65.85
2018-08-09T01:32:39.783Z,65.75
2018-08-09T01:32:50.253Z,65.75
2018-08-09T01:33:00.340Z,65.95
2018-08-09T01:33:10.118Z,65.85
2018-08-09T01:33:20.097Z,65.75
2018-08-09T01:33:30.107Z,65.95
2018-08-09T01:33:40.165Z,65.75
2018-08-09T01:33:50.128Z,65.75
2018-08-09T01:34:00.237Z,65.75
2018-08-09T01:34:10.181Z,65.95
2018-08-09T01:34:19.916Z,65.85
2018-08-09T01:34:30.186Z,65.95
2018-08-09T01:34:40.208Z,65.75
2018-08-09T01:34:50.229Z,65.75
2018-08-09T01:35:00.226Z,65.85
2018-08-09T01:35:10.271Z,65.75
2018-08-09T01:35:20.307Z,65.95
2018-08-09T01:35:30.298Z,65.95
2018-08-09T01:35:40.298Z,65.75
2018-08-09T01:35:50.317Z,65.95
2018-08-09T01:36:00.316Z,65.95
2018-08-09T01:36:10.357Z,65.95
2018-08-09T01:36:20.361Z,65.85
2018-08-09T01:36:30.348Z,65.85
2018-08-09T01:36:40.369Z,65.85
2018-08-09T01:36:50.388Z,65.95
2018-08-09T01:37:00.402Z,65.95
2018-08-09T01:37:10.411Z,65.95
2018-08-09T01:37:20.177Z,65.95
2018-08-09T01:37:30.425Z,65.95
2018-08-09T01:37:40.462Z,65.95
2018-08-09T01:37:50.470Z,65.85
2018-08-09T01:38:00.491Z,65.85
2018-08-09T01:38:10.498Z,65.95
2018-08-09T01:38:20.539Z,65.95
2018-08-09T01:38:30.258Z,65.95
2018-08-09T01:38:40.571Z,65.95
2018-08-09T01:38:50.564Z,65.95
2018-08-09T01:39:00.568Z,65.95
2018-08-09T01:39:10.618Z,65.85
2018-08-09T01:39:20.608Z,65.95
2018-08-09T01:39:30.618Z,65.95
2018-08-09T01:39:40.697Z,65.95
2018-08-09T01:39:50.378Z,65.95
2018-08-09T01:40:00.769Z,65.95
2018-08-09T01:40:10.681Z,65.95
2018-08-09T01:40:20.689Z,65.85
2018-08-09T01:40:30.688Z,65.85
2018-08-09T01:40:40.728Z,65.85
2018-08-09T01:40:50.707Z,65.95
2018-08-09T01:41:00.731Z,65.95
2018-08-09T01:41:10.498Z,65.85
2018-08-09T01:41:20.749Z,65.95
2018-08-09T01:41:30.767Z,65.95
2018-08-09T01:41:40.818Z,65.82
2018-08-09T01:41:50.787Z,65.95
2018-08-09T01:42:00.833Z,65.95
2018-08-09T01:42:10.851Z,65.92
2018-08-09T01:42:20.565Z,65.95
2018-08-09T01:42:30.887Z,65.85
2018-08-09T01:42:40.628Z,65.95
2018-08-09T01:42:50.879Z,65.92
2018-08-09T01:43:00.918Z,65.95
2018-08-09T01:43:10.928Z,65.95
2018-08-09T01:43:20.938Z,65.95
2018-08-09T01:43:30.931Z,65.63
2018-08-09T01:43:40.937Z,65.95
2018-08-09T01:43:50.957Z,65.95
2018-08-09T01:44:00.989Z,65.92
2018-08-09T01:44:11.008Z,65.95
2018-08-09T01:44:21.039Z,65.85
2018-08-09T01:44:31.000Z,65.85
2018-08-09T01:44:41.039Z,65.66
2018-08-09T01:44:51.069Z,65.95
2018-08-09T01:45:01.064Z,65.95
2018-08-09T01:45:11.089Z,65.95
2018-08-09T01:45:21.139Z,65.95
2018-08-09T01:45:31.107Z,65.95
2018-08-09T01:45:41.110Z,65.95
2018-08-09T01:45:51.118Z,65.95
2018-08-09T01:46:01.178Z,65.56
2018-08-09T01:46:10.893Z,65.85
2018-08-09T01:46:21.180Z,65.95
2018-08-09T01:46:31.189Z,65.95
2018-08-09T01:46:41.208Z,65.95
2018-08-09T01:46:51.270Z,65.66
2018-08-09T01:47:01.240Z,65.66
2018-08-09T01:47:11.259Z,65.95
2018-08-09T01:47:21.258Z,65.95
2018-08-09T01:47:31.307Z,65.95
2018-08-09T01:47:41.317Z,65.95
2018-08-09T01:47:51.318Z,65.95
2018-08-09T01:48:01.330Z,65.95
2018-08-09T01:48:11.338Z,65.85
2018-08-09T01:48:21.358Z,65.56
2018-08-09T01:48:31.109Z,65.85
2018-08-09T01:48:41.392Z,65.82
2018-08-09T01:48:51.377Z,65.95
2018-08-09T01:49:01.432Z,66.05
2018-08-09T01:49:11.409Z,65.95
2018-08-09T01:49:21.418Z,65.56
2018-08-09T01:49:31.459Z,65.66
2018-08-09T01:49:41.467Z,65.82
2018-08-09T01:49:51.438Z,65.95
2018-08-09T01:50:01.519Z,65.66
2018-08-09T01:50:11.499Z,65.92
2018-08-09T01:50:21.480Z,65.92
2018-08-09T01:50:31.498Z,65.95
2018-08-09T01:50:41.549Z,65.95
2018-08-09T01:50:51.571Z,65.63
2018-08-09T01:51:01.559Z,65.63
2018-08-09T01:51:11.589Z,65.85
2018-08-09T01:51:21.570Z,65.82
2018-08-09T01:51:31.348Z,65.72
2018-08-09T01:51:41.630Z,65.63
2018-08-09T01:51:51.660Z,65.63
2018-08-09T01:52:01.641Z,65.66
2018-08-09T01:52:11.678Z,65.92
2018-08-09T01:52:21.669Z,65.85
2018-08-09T01:52:31.700Z,65.92
2018-08-09T01:52:41.761Z,65.95
2018-08-09T01:52:51.709Z,65.82
2018-08-09T01:53:01.729Z,65.66
2018-08-09T01:53:11.729Z,65.85
2018-08-09T01:53:21.759Z,65.95
2018-08-09T01:53:31.509Z,65.92
2018-08-09T01:53:41.759Z,65.82
2018-08-09T01:53:51.558Z,65.95
2018-08-09T01:54:01.836Z,65.85
2018-08-09T01:54:11.810Z,65.95
2018-08-09T01:54:21.839Z,65.63
2018-08-09T01:54:31.570Z,65.63
2018-08-09T01:54:41.857Z,65.85
2018-08-09T01:54:51.860Z,66.05
2018-08-09T01:55:01.911Z,65.75
2018-08-09T01:55:11.910Z,65.66
2018-08-09T01:55:21.660Z,65.66
2018-08-09T01:55:31.940Z,65.63
2018-08-09T01:55:41.952Z,65.66
2018-08-09T01:55:51.963Z,65.63
2018-08-09T01:56:02.013Z,65.66
2018-08-09T01:56:12.025Z,65.63
2018-08-09T01:56:21.750Z,65.92
2018-08-09T01:56:32.045Z,65.95
2018-08-09T01:56:42.020Z,65.95
2018-08-09T01:56:52.054Z,65.95
2018-08-09T01:57:02.089Z,65.85
2018-08-09T01:57:12.090Z,65.82
2018-08-09T01:57:22.079Z,65.95
2018-08-09T01:57:32.120Z,66.02
2018-08-09T01:57:42.140Z,65.95
2018-08-09T01:57:52.129Z,65.92
2018-08-09T01:58:02.141Z,65.82
2018-08-09T01:58:12.177Z,65.92
2018-08-09T01:58:22.189Z,65.95
2018-08-09T01:58:32.196Z,65.92
2018-08-09T01:58:42.269Z,65.92
2018-08-09T01:58:52.221Z,65.82
2018-08-09T01:59:02.219Z,65.63
2018-08-09T01:59:12.250Z,65.63
2018-08-09T01:59:22.313Z,65.63
2018-08-09T01:59:32.271Z,65.85
2018-08-09T01:59:42.289Z,65.63
2018-08-09T01:59:52.311Z,65.63
2018-08-09T02:00:02.426Z,65.95
2018-08-09T02:00:12.321Z,65.92
2018-08-09T02:00:22.381Z,65.92
2018-08-09T02:00:32.360Z,65.92
2018-08-09T02:00:42.371Z,65.95
2018-08-09T02:00:52.372Z,65.95
2018-08-09T02:01:02.409Z,65.92
2018-08-09T02:01:12.429Z,65.82
2018-08-09T02:01:22.445Z,65.85
2018-08-09T02:01:32.461Z,65.82
2018-08-09T02:01:42.444Z,65.92
2018-08-09T02:01:52.472Z,65.95
2018-08-09T02:02:02.481Z,65.92
2018-08-09T02:02:12.491Z,66.02
2018-08-09T02:02:22.510Z,65.92
2018-08-09T02:02:32.530Z,65.92
2018-08-09T02:02:42.551Z,65.95
2018-08-09T02:02:52.549Z,65.92
2018-08-09T02:03:02.300Z,65.63
2018-08-09T02:03:12.620Z,66.02
2018-08-09T02:03:22.590Z,65.92
2018-08-09T02:03:32.610Z,65.95
2018-08-09T02:03:42.361Z,65.92
2018-08-09T02:03:52.631Z,65.92
2018-08-09T02:04:02.653Z,65.82
2018-08-09T02:04:12.668Z,65.63
2018-08-09T02:04:22.671Z,65.92
2018-08-09T02:04:32.765Z,65.95
2018-08-09T02:04:42.916Z,66.02
2018-08-09T02:04:53.048Z,65.63
2018-08-09T02:05:02.882Z,65.53
2018-08-09T02:05:12.763Z,66.02
2018-08-09T02:05:22.461Z,65.92
2018-08-09T02:05:32.762Z,65.92
2018-08-09T02:05:42.771Z,65.82
2018-08-09T02:05:52.801Z,65.92
2018-08-09T02:06:02.811Z,65.82
2018-08-09T02:06:12.825Z,65.92
2018-08-09T02:06:22.820Z,65.92
2018-08-09T02:06:32.863Z,65.92
2018-08-09T02:06:42.881Z,65.92
2018-08-09T02:06:52.880Z,65.63
2018-08-09T02:07:02.878Z,65.92
2018-08-09T02:07:12.962Z,65.82
2018-08-09T02:07:22.992Z,65.72
2018-08-09T02:07:32.891Z,65.63
2018-08-09T02:07:42.951Z,65.72
2018-08-09T02:07:53.018Z,65.82
2018-08-09T02:08:02.971Z,65.63
2018-08-09T02:08:12.982Z,65.63
2018-08-09T02:08:23.002Z,65.95
2018-08-09T02:08:33.022Z,65.95
2018-08-09T02:08:43.022Z,65.92
2018-08-09T02:08:53.042Z,65.92